createdAt,value
2023-04-15T00:01:39.083Z,10.33
2023-04-15T00:04:06.414Z,10.40
2023-04-15T00:06:35.506Z,11.77
2023-04-15T00:09:04.400Z,12.57
2023-04-15T00:11:32.350Z,10.53
2023-04-15T00:14:00.602Z,9.03
2023-04-15T00:16:28.325Z,9.43
2023-04-15T00:18:57.202Z,13.40
2023-04-15T00:21:24.724Z,11.40
2023-04-15T00:23:53.663Z,8.17
2023-04-15T00:26:21.159Z,9.00
2023-04-15T00:28:50.182Z,10.37
2023-04-15T00:31:17.880Z,9.60
2023-04-15T00:33:48.820Z,8.87
2023-04-15T00:36:16.281Z,9.03
2023-04-15T00:38:43.684Z,14.10
2023-04-15T00:41:11.663Z,10.33
2023-04-15T00:43:39.121Z,8.20
2023-04-15T00:46:07.439Z,8.80
2023-04-15T00:48:34.817Z,12.53
2023-04-15T00:51:02.769Z,8.30
2023-04-15T00:53:30.439Z,8.47
2023-04-15T00:55:58.149Z,8.47
2023-04-15T00:58:25.714Z,8.47
2023-04-15T01:00:55.224Z,10.40
2023-04-15T01:03:23.228Z,10.53
2023-04-15T01:05:51.477Z,7.33
2023-04-15T01:08:18.689Z,12.93
2023-04-15T01:10:46.393Z,10.43
2023-04-15T01:13:13.800Z,10.13
2023-04-15T01:15:41.304Z,8.60
2023-04-15T01:18:09.912Z,9.77
2023-04-15T01:20:38.629Z,10.13
2023-04-15T01:23:07.092Z,8.50
2023-04-15T01:25:35.187Z,8.73
2023-04-15T01:28:03.504Z,7.70
2023-04-15T01:30:35.662Z,8.83
2023-04-15T01:33:03.268Z,7.67
2023-04-15T01:35:49.679Z,7.90
2023-04-15T01:38:18.234Z,9.70
2023-04-15T01:40:45.968Z,7.97
2023-04-15T01:43:13.431Z,8.43
2023-04-15T01:45:43.067Z,8.60
2023-04-15T01:48:10.521Z,8.30
2023-04-15T01:50:40.130Z,8.20
2023-04-15T01:53:08.628Z,10.70
2023-04-15T01:55:37.141Z,9.30
2023-04-15T01:58:04.979Z,8.30
2023-04-15T02:00:32.595Z,10.80
2023-04-15T02:03:00.754Z,10.47
2023-04-15T02:05:29.453Z,9.43
2023-04-15T02:07:57.898Z,9.87
2023-04-15T02:10:25.756Z,10.60
2023-04-15T02:12:54.108Z,9.50
2023-04-15T02:15:25.712Z,8.87
2023-04-15T02:17:55.191Z,9.33
2023-04-15T02:20:24.236Z,11.07
2023-04-15T02:22:52.418Z,8.00
2023-04-15T02:25:20.764Z,10.47
2023-04-15T02:27:48.148Z,8.57
2023-04-15T02:30:18.638Z,8.40
2023-04-15T02:32:46.968Z,8.10
2023-04-15T02:35:14.564Z,9.43
2023-04-15T02:37:44.086Z,9.00
2023-04-15T02:40:12.353Z,8.27
2023-04-15T02:42:40.319Z,8.60
2023-04-15T02:45:14.113Z,9.23
2023-04-15T02:47:43.909Z,8.57
2023-04-15T02:50:13.438Z,10.03
2023-04-15T02:52:42.798Z,9.00
2023-04-15T02:55:10.823Z,9.27
2023-04-15T02:57:39.206Z,9.03
2023-04-15T03:00:11.387Z,16.63
2023-04-15T03:02:43.411Z,11.50
2023-04-15T03:05:14.843Z,8.77
2023-04-15T03:07:49.219Z,13.13
2023-04-15T03:10:17.034Z,10.13
2023-04-15T03:12:45.223Z,12.20
2023-04-15T03:15:17.615Z,11.00
2023-04-15T03:17:53.561Z,9.53
2023-04-15T03:20:22.144Z,13.23
2023-04-15T03:22:49.711Z,16.37
2023-04-15T03:25:21.337Z,12.07
2023-04-15T03:27:49.004Z,12.70
2023-04-15T03:30:17.193Z,13.90
2023-04-15T03:32:44.783Z,9.73
2023-04-15T03:35:15.057Z,11.00
2023-04-15T03:37:43.423Z,12.67
2023-04-15T03:40:11.039Z,15.40
2023-04-15T03:42:38.510Z,12.53
2023-04-15T03:45:06.447Z,11.47
2023-04-15T03:47:36.316Z,14.87
2023-04-15T03:50:03.584Z,14.03
2023-04-15T03:52:30.953Z,14.90
2023-04-15T03:54:58.459Z,19.33
2023-04-15T03:57:25.762Z,13.40
2023-04-15T03:59:53.467Z,11.80
2023-04-15T04:02:21.765Z,9.73
2023-04-15T04:04:49.369Z,11.30
2023-04-15T04:07:17.654Z,10.00
2023-04-15T04:09:47.011Z,15.00
2023-04-15T04:12:14.576Z,14.20
2023-04-15T04:14:41.828Z,11.40
2023-04-15T04:17:09.508Z,10.03
2023-04-15T04:19:36.934Z,16.47
2023-04-15T04:22:04.237Z,12.20
2023-04-15T04:24:32.028Z,9.60
2023-04-15T04:27:03.241Z,11.40
2023-04-15T04:29:30.832Z,11.33
2023-04-15T04:31:58.315Z,11.37
2023-04-15T04:34:25.794Z,14.03
2023-04-15T04:36:53.308Z,15.20
2023-04-15T04:39:20.773Z,12.83
2023-04-15T04:41:48.397Z,15.77
2023-04-15T04:44:16.287Z,12.20
2023-04-15T04:46:44.954Z,17.50
2023-04-15T04:49:12.231Z,11.80
2023-04-15T04:51:40.056Z,11.57
2023-04-15T04:54:10.338Z,13.73
2023-04-15T04:56:39.515Z,11.90
2023-04-15T04:59:07.599Z,13.73
2023-04-15T05:01:35.084Z,10.80
2023-04-15T05:04:05.586Z,9.73
2023-04-15T05:06:32.987Z,16.23
2023-04-15T05:09:01.249Z,11.20
2023-04-15T05:11:29.703Z,12.30
2023-04-15T05:13:58.033Z,10.67
2023-04-15T05:16:27.352Z,11.80
2023-04-15T05:18:54.792Z,9.80
2023-04-15T05:21:22.300Z,11.73
2023-04-15T05:23:49.521Z,9.23
2023-04-15T05:26:17.572Z,12.03
2023-04-15T05:28:44.783Z,11.03
2023-04-15T05:31:12.008Z,10.10
2023-04-15T05:33:39.305Z,11.03
2023-04-15T05:36:07.294Z,10.83
2023-04-15T05:38:34.729Z,11.93
2023-04-15T05:41:02.132Z,11.37
2023-04-15T05:43:29.596Z,12.60
2023-04-15T05:45:56.820Z,11.77
2023-04-15T05:48:24.046Z,13.40
2023-04-15T05:50:51.242Z,12.50
2023-04-15T05:53:18.424Z,12.87
2023-04-15T05:55:45.919Z,13.17
2023-04-15T05:58:13.159Z,14.27
2023-04-15T06:00:41.452Z,12.97
2023-04-15T06:03:08.929Z,20.37
2023-04-15T06:05:36.159Z,14.23
2023-04-15T06:08:03.396Z,16.53
2023-04-15T06:10:30.963Z,15.10
2023-04-15T06:12:58.168Z,14.47
2023-04-15T06:15:25.608Z,14.07
2023-04-15T06:17:52.808Z,12.87
2023-04-15T06:20:20.249Z,12.20
2023-04-15T06:22:47.459Z,17.63
2023-04-15T06:25:14.733Z,13.10
2023-04-15T06:27:43.545Z,12.13
2023-04-15T06:30:11.183Z,13.80
2023-04-15T06:32:38.702Z,11.83
2023-04-15T06:35:06.124Z,9.47
2023-04-15T06:37:33.323Z,11.23
2023-04-15T06:40:00.482Z,11.60
2023-04-15T06:42:27.638Z,12.50
2023-04-15T06:44:54.905Z,12.97
2023-04-15T06:47:23.366Z,13.90
2023-04-15T06:49:50.837Z,11.47
2023-04-15T06:52:18.597Z,10.40
2023-04-15T06:54:45.797Z,10.10
2023-04-15T06:57:13.118Z,11.57
2023-04-15T06:59:40.363Z,12.23
2023-04-15T07:02:11.406Z,12.53
2023-04-15T07:04:38.641Z,13.20
2023-04-15T07:07:05.974Z,11.70
2023-04-15T07:09:38.454Z,10.67
2023-04-15T07:12:05.737Z,11.87
2023-04-15T07:14:37.610Z,11.07
2023-04-15T07:17:04.852Z,13.30
2023-04-15T07:19:32.513Z,12.57
2023-04-15T07:21:59.694Z,12.13
2023-04-15T07:24:26.869Z,12.37
2023-04-15T07:27:00.341Z,12.43
2023-04-15T07:29:29.265Z,11.50
2023-04-15T07:31:57.548Z,11.87
2023-04-15T07:34:26.052Z,10.70
2023-04-15T07:36:53.276Z,10.83
2023-04-15T07:39:20.446Z,10.40
2023-04-15T07:41:48.950Z,12.60
2023-04-15T07:44:16.157Z,13.43
2023-04-15T07:46:43.659Z,14.20
2023-04-15T07:49:10.892Z,12.23
2023-04-15T07:51:38.379Z,12.90
2023-04-15T07:54:05.580Z,11.63
2023-04-15T07:56:32.965Z,13.97
2023-04-15T07:59:02.760Z,13.07
2023-04-15T08:01:30.081Z,11.57
2023-04-15T08:03:57.796Z,12.37
2023-04-15T08:06:25.168Z,12.10
2023-04-15T08:08:52.778Z,13.50
2023-04-15T08:11:20.098Z,10.70
2023-04-15T08:13:47.518Z,11.23
2023-04-15T08:16:14.846Z,11.50
2023-04-15T08:18:42.108Z,10.53
2023-04-15T08:21:09.357Z,13.53
2023-04-15T08:23:36.703Z,10.97
2023-04-15T08:26:04.210Z,9.40
2023-04-15T08:28:31.461Z,11.43
2023-04-15T08:30:58.896Z,10.13
2023-04-15T08:33:26.207Z,8.83
2023-04-15T08:35:53.368Z,12.30
2023-04-15T08:38:20.619Z,10.23
2023-04-15T08:40:48.833Z,10.30
2023-04-15T08:43:26.937Z,8.20
2023-04-15T08:45:54.192Z,8.07
2023-04-15T08:48:24.473Z,7.53
2023-04-15T08:50:52.073Z,6.50
2023-04-15T08:53:19.339Z,10.17
2023-04-15T08:55:47.285Z,10.20
2023-04-15T08:58:15.642Z,7.30
2023-04-15T09:00:42.935Z,8.10
2023-04-15T09:03:10.701Z,8.60
2023-04-15T09:05:39.026Z,9.20
2023-04-15T09:08:06.542Z,11.33
2023-04-15T09:10:34.434Z,7.40
2023-04-15T09:13:02.787Z,6.23
2023-04-15T09:15:30.963Z,5.80
2023-04-15T09:17:59.798Z,10.23
2023-04-15T09:20:27.251Z,9.10
2023-04-15T09:22:54.425Z,5.70
2023-04-15T09:25:25.844Z,5.90
2023-04-15T09:27:54.164Z,6.97
2023-04-15T09:30:21.697Z,6.10
2023-04-15T09:32:56.430Z,5.60
2023-04-15T09:35:24.509Z,5.67
2023-04-15T09:37:52.627Z,6.70
2023-04-15T09:40:44.073Z,7.80
2023-04-15T09:43:14.253Z,5.10
2023-04-15T09:45:47.600Z,5.90
2023-04-15T09:48:27.101Z,6.10
2023-04-15T09:50:54.738Z,5.43
2023-04-15T09:53:22.940Z,5.33
2023-04-15T09:55:51.464Z,5.47
2023-04-15T09:58:21.946Z,6.53
2023-04-15T10:00:50.338Z,5.20
2023-04-15T10:03:24.443Z,8.07
2023-04-15T10:05:52.930Z,6.63
2023-04-15T10:08:21.692Z,5.70
2023-04-15T10:10:51.672Z,5.93
2023-04-15T10:13:19.768Z,6.17
2023-04-15T10:15:51.684Z,5.93
2023-04-15T10:18:21.631Z,4.43
2023-04-15T10:20:49.202Z,5.03
2023-04-15T10:23:17.619Z,5.03
2023-04-15T10:25:45.806Z,5.17
2023-04-15T10:28:14.882Z,6.00
2023-04-15T10:30:42.897Z,5.17
2023-04-15T10:33:11.174Z,4.70
2023-04-15T10:35:39.188Z,5.00
2023-04-15T10:38:25.070Z,4.73
2023-04-15T10:40:52.763Z,6.23
2023-04-15T10:43:27.447Z,6.20
2023-04-15T10:45:54.630Z,5.97
2023-04-15T10:48:22.031Z,5.70
2023-04-15T10:51:02.098Z,5.07
2023-04-15T10:53:30.761Z,5.00
2023-04-15T10:56:00.940Z,7.60
2023-04-15T10:58:41.676Z,6.20
2023-04-15T11:01:08.826Z,9.13
2023-04-15T11:03:40.362Z,9.17
2023-04-15T11:06:08.083Z,5.73
2023-04-15T11:08:54.847Z,5.60
2023-04-15T11:11:22.026Z,4.93
2023-04-15T11:13:50.290Z,6.13
2023-04-15T11:16:17.649Z,5.03
2023-04-15T11:18:54.283Z,5.40
2023-04-15T11:21:24.996Z,7.77
2023-04-15T11:23:53.276Z,8.60
2023-04-15T11:26:20.624Z,5.43
2023-04-15T11:28:51.366Z,8.23
2023-04-15T11:31:19.914Z,5.87
2023-04-15T11:33:58.827Z,5.07
2023-04-15T11:36:28.791Z,5.83
2023-04-15T11:38:56.317Z,5.40
2023-04-15T11:41:24.459Z,5.43
2023-04-15T11:43:52.379Z,6.10
2023-04-15T11:46:19.883Z,5.63
2023-04-15T11:48:47.994Z,5.93
2023-04-15T11:51:15.465Z,5.67
2023-04-15T11:53:42.731Z,6.40
2023-04-15T11:56:10.571Z,10.40
2023-04-15T11:58:39.024Z,8.13
2023-04-15T12:01:07.224Z,5.60
2023-04-15T12:03:34.550Z,5.67
2023-04-15T12:06:08.822Z,7.00
2023-04-15T12:08:49.023Z,5.63
2023-04-15T12:11:16.860Z,5.80
2023-04-15T12:13:47.026Z,5.77
2023-04-15T12:16:14.355Z,7.23
2023-04-15T12:18:41.944Z,5.30
2023-04-15T12:21:12.306Z,5.77
2023-04-15T12:23:51.391Z,7.67
2023-04-15T12:26:19.146Z,5.97
2023-04-15T12:28:46.872Z,5.87
2023-04-15T12:31:15.074Z,6.53
2023-04-15T12:33:42.352Z,5.37
2023-04-15T12:36:09.767Z,9.93
2023-04-15T12:38:39.243Z,5.60
2023-04-15T12:41:06.444Z,5.63
2023-04-15T12:43:33.612Z,7.00
2023-04-15T12:46:00.980Z,6.50
2023-04-15T12:48:28.469Z,7.03
2023-04-15T12:50:56.636Z,6.47
2023-04-15T12:53:23.806Z,6.67
2023-04-15T12:55:53.892Z,5.53
2023-04-15T12:58:22.069Z,7.20
2023-04-15T13:00:50.119Z,4.80
2023-04-15T13:03:20.053Z,6.07
2023-04-15T13:05:48.613Z,4.63
2023-04-15T13:08:15.995Z,3.80
2023-04-15T13:10:43.489Z,3.23
2023-04-15T13:13:10.800Z,3.73
2023-04-15T13:15:38.117Z,6.30
2023-04-15T13:18:05.942Z,2.77
2023-04-15T13:20:35.302Z,4.53
2023-04-15T13:23:02.937Z,4.03
2023-04-15T13:25:30.079Z,3.60
2023-04-15T13:27:57.697Z,3.77
2023-04-15T13:30:25.011Z,3.07
2023-04-15T13:32:54.280Z,2.70
2023-04-15T13:35:23.047Z,5.40
2023-04-15T13:37:50.404Z,2.43
2023-04-15T13:40:17.568Z,2.10
2023-04-15T13:42:44.731Z,2.17
2023-04-15T13:45:12.027Z,2.00
2023-04-15T13:47:39.302Z,3.20
2023-04-15T13:50:06.946Z,2.07
2023-04-15T13:52:34.103Z,1.80
2023-04-15T13:55:07.090Z,1.90
2023-04-15T13:57:47.164Z,2.60
2023-04-15T14:00:15.384Z,5.20
2023-04-15T14:02:42.960Z,2.50
2023-04-15T14:05:11.173Z,2.30
2023-04-15T14:07:39.197Z,2.00
2023-04-15T14:10:07.442Z,2.10
2023-04-15T14:12:34.647Z,3.07
2023-04-15T14:15:02.589Z,2.60
2023-04-15T14:17:30.216Z,2.67
2023-04-15T14:19:58.588Z,2.90
2023-04-15T14:22:25.857Z,2.80
2023-04-15T14:24:55.534Z,3.07
2023-04-15T14:27:23.690Z,3.17
2023-04-15T14:29:53.347Z,3.40
2023-04-15T14:32:21.138Z,3.23
2023-04-15T14:34:48.453Z,2.77
2023-04-15T14:37:15.953Z,3.10
2023-04-15T14:39:43.292Z,2.80
2023-04-15T14:42:10.720Z,3.20
2023-04-15T14:44:38.065Z,2.93
2023-04-15T14:47:06.043Z,3.30
2023-04-15T14:49:34.934Z,2.90
2023-04-15T14:52:03.267Z,3.13
2023-04-15T14:54:30.761Z,3.30
2023-04-15T14:56:58.458Z,3.50
2023-04-15T14:59:26.051Z,4.03
2023-04-15T15:01:54.141Z,2.97
2023-04-15T15:04:21.600Z,4.77
2023-04-15T15:06:49.266Z,3.10
2023-04-15T15:09:16.724Z,3.57
2023-04-15T15:11:43.977Z,4.00
2023-04-15T15:14:11.343Z,2.70
2023-04-15T15:16:38.629Z,3.83
2023-04-15T15:19:06.104Z,6.80
2023-04-15T15:21:35.408Z,3.37
2023-04-15T15:24:02.696Z,2.60
2023-04-15T15:26:30.358Z,3.10
2023-04-15T15:28:58.182Z,3.07
2023-04-15T15:31:25.997Z,5.27
2023-04-15T15:33:56.372Z,2.53
2023-04-15T15:36:24.645Z,2.83
2023-04-15T15:38:53.149Z,2.83
2023-04-15T15:41:21.182Z,2.63
2023-04-15T15:43:51.747Z,3.13
2023-04-15T15:46:19.277Z,2.13
2023-04-15T15:48:46.649Z,2.47
2023-04-15T15:51:13.881Z,2.80
2023-04-15T15:53:41.249Z,3.17
2023-04-15T15:56:08.429Z,3.03
2023-04-15T15:58:35.618Z,3.77
2023-04-15T16:01:02.867Z,6.83
2023-04-15T16:03:31.450Z,6.53
2023-04-15T16:05:58.739Z,2.63
2023-04-15T16:08:27.088Z,3.30
2023-04-15T16:10:55.322Z,3.73
2023-04-15T16:13:22.939Z,3.10
2023-04-15T16:15:52.611Z,2.67
2023-04-15T16:18:20.074Z,2.87
2023-04-15T16:20:48.310Z,2.90
2023-04-15T16:23:17.744Z,2.20
2023-04-15T16:25:45.504Z,3.63
2023-04-15T16:28:25.762Z,4.20
2023-04-15T16:30:54.741Z,2.93
2023-04-15T16:33:22.239Z,2.70
2023-04-15T16:35:49.424Z,2.73
2023-04-15T16:38:16.650Z,2.53
2023-04-15T16:40:43.860Z,3.30
2023-04-15T16:43:11.407Z,2.70
2023-04-15T16:45:38.902Z,3.83
2023-04-15T16:48:06.500Z,6.73
2023-04-15T16:50:33.740Z,3.83
2023-04-15T16:53:01.570Z,3.20
2023-04-15T16:55:28.847Z,3.93
2023-04-15T16:58:01.693Z,3.83
2023-04-15T17:00:36.701Z,3.10
2023-04-15T17:03:04.335Z,3.40
2023-04-15T17:05:31.672Z,3.97
2023-04-15T17:08:02.231Z,2.70
2023-04-15T17:10:29.425Z,3.10
2023-04-15T17:12:57.626Z,3.13
2023-04-15T17:15:27.043Z,3.80
2023-04-15T17:18:06.485Z,5.60
2023-04-15T17:20:35.371Z,3.93
2023-04-15T17:23:05.671Z,2.83
2023-04-15T17:25:34.195Z,2.90
2023-04-15T17:28:04.817Z,3.07
2023-04-15T17:30:34.713Z,3.43
2023-04-15T17:34:00.095Z,3.03
2023-04-15T17:36:29.261Z,4.77
2023-04-15T17:39:16.653Z,3.50
2023-04-15T17:41:45.757Z,4.07
2023-04-15T17:44:32.896Z,3.30
2023-04-15T17:47:24.279Z,3.73
2023-04-15T17:50:11.513Z,3.10
2023-04-15T17:52:59.704Z,3.30
2023-04-15T17:55:47.890Z,2.90
2023-04-15T17:58:35.135Z,3.37
2023-04-15T18:01:23.963Z,5.07
2023-04-15T18:04:11.429Z,4.20
2023-04-15T18:06:59.007Z,5.50
2023-04-15T18:09:46.380Z,4.37
2023-04-15T18:12:34.592Z,6.73
2023-04-15T18:15:21.781Z,13.60
2023-04-15T18:18:09.196Z,3.90
2023-04-15T18:20:39.702Z,4.73
2023-04-15T18:23:07.825Z,3.93
2023-04-15T18:25:35.303Z,5.43
2023-04-15T18:28:05.058Z,4.20
2023-04-15T18:30:32.343Z,3.53
2023-04-15T18:32:59.621Z,4.87
2023-04-15T18:35:31.275Z,3.47
2023-04-15T18:37:58.929Z,3.53
2023-04-15T18:40:28.162Z,4.00
2023-04-15T18:42:55.891Z,4.30
2023-04-15T18:45:23.084Z,4.23
2023-04-15T18:47:51.365Z,4.80
2023-04-15T18:50:18.818Z,4.70
2023-04-15T18:52:48.090Z,3.60
2023-04-15T18:55:18.998Z,3.70
2023-04-15T18:57:47.261Z,3.30
2023-04-15T19:00:17.038Z,5.27
2023-04-15T19:02:44.918Z,5.50
2023-04-15T19:05:12.394Z,3.63
2023-04-15T19:07:39.727Z,3.50
2023-04-15T19:10:07.808Z,3.33
2023-04-15T19:12:36.481Z,4.47
2023-04-15T19:15:04.563Z,4.20
2023-04-15T19:17:32.002Z,4.27
2023-04-15T19:20:01.243Z,3.90
2023-04-15T19:22:30.363Z,4.43
2023-04-15T19:24:58.222Z,4.33
2023-04-15T19:27:25.697Z,4.23
2023-04-15T19:29:52.987Z,4.03
2023-04-15T19:32:21.139Z,4.10
2023-04-15T19:34:48.871Z,3.70
2023-04-15T19:37:16.154Z,3.77
2023-04-15T19:39:43.454Z,3.97
2023-04-15T19:42:13.445Z,4.80
2023-04-15T19:44:44.739Z,3.80
2023-04-15T19:47:12.276Z,3.87
2023-04-15T19:49:39.674Z,5.47
2023-04-15T19:52:08.382Z,4.77
2023-04-15T19:54:36.846Z,3.53
2023-04-15T19:57:04.618Z,3.43
2023-04-15T19:59:32.504Z,4.90
2023-04-15T20:02:00.906Z,5.20
2023-04-15T20:04:28.288Z,3.47
2023-04-15T20:06:56.045Z,4.10
2023-04-15T20:09:25.647Z,4.90
2023-04-15T20:12:44.880Z,4.67
2023-04-15T20:14:40.102Z,3.90
2023-04-15T20:17:08.706Z,3.90
2023-04-15T20:19:37.327Z,3.90
2023-04-15T20:22:04.847Z,4.20
2023-04-15T20:24:32.014Z,4.80
2023-04-15T20:26:59.238Z,3.80
2023-04-15T20:29:26.468Z,3.90
2023-04-15T20:31:55.590Z,5.67
2023-04-15T20:34:22.782Z,3.83
2023-04-15T20:36:50.060Z,3.70
2023-04-15T20:39:17.319Z,4.30
2023-04-15T20:41:44.573Z,3.53
2023-04-15T20:44:12.374Z,3.87
2023-04-15T20:46:39.588Z,4.03
2023-04-15T20:49:09.096Z,3.70
2023-04-15T20:51:37.897Z,4.27
2023-04-15T20:54:06.109Z,4.07
2023-04-15T20:56:33.999Z,3.70
2023-04-15T20:59:04.064Z,3.50
2023-04-15T21:01:31.487Z,4.10
2023-04-15T21:04:00.507Z,3.90
2023-04-15T21:06:28.016Z,4.40
2023-04-15T21:08:56.272Z,3.97
2023-04-15T21:11:45.843Z,4.27
2023-04-15T21:14:10.859Z,3.83
2023-04-15T21:16:38.304Z,4.60
2023-04-15T21:19:06.776Z,6.20
2023-04-15T21:21:35.372Z,4.97
2023-04-15T21:24:02.755Z,5.47
2023-04-15T21:26:30.245Z,3.83
2023-04-15T21:28:57.439Z,6.83
2023-04-15T21:31:24.719Z,4.33
2023-04-15T21:33:53.474Z,4.40
2023-04-15T21:36:21.601Z,4.67
2023-04-15T21:38:49.003Z,3.93
2023-04-15T21:41:16.720Z,3.73
2023-04-15T21:43:43.920Z,3.47
2023-04-15T21:46:24.343Z,5.00
2023-04-15T21:48:53.025Z,4.13
2023-04-15T21:51:20.582Z,4.30
2023-04-15T21:53:48.985Z,3.77
2023-04-15T21:56:16.166Z,4.13
2023-04-15T21:58:43.320Z,4.20
2023-04-15T22:01:11.419Z,4.20
2023-04-15T22:03:39.810Z,3.83
2023-04-15T22:06:13.615Z,4.37
2023-04-15T22:08:55.382Z,5.67
2023-04-15T22:11:30.209Z,5.47
2023-04-15T22:13:57.851Z,4.10
2023-04-15T22:16:26.148Z,4.13
2023-04-15T22:18:54.796Z,5.20
2023-04-15T22:21:24.359Z,4.43
2023-04-15T22:24:32.255Z,4.37
2023-04-15T22:26:40.933Z,4.90
2023-04-15T22:29:08.475Z,5.73
2023-04-15T22:31:35.745Z,8.63
2023-04-15T22:34:03.005Z,5.77
2023-04-15T22:36:31.872Z,7.60
2023-04-15T22:39:00.174Z,5.30
2023-04-15T22:41:27.361Z,6.50
2023-04-15T22:43:54.825Z,7.20
2023-04-15T22:46:22.086Z,7.20
2023-04-15T22:48:49.274Z,6.10
2023-04-15T22:51:24.199Z,6.03
2023-04-15T22:53:51.378Z,9.33
2023-04-15T22:56:22.771Z,7.40
2023-04-15T22:58:50.532Z,7.63
2023-04-15T23:01:17.968Z,9.40
2023-04-15T23:03:56.403Z,7.60
2023-04-15T23:06:33.571Z,7.30
2023-04-15T23:09:01.095Z,9.57
2023-04-15T23:11:28.519Z,8.83
2023-04-15T23:13:56.834Z,8.27
2023-04-15T23:16:24.654Z,7.73
2023-04-15T23:18:53.239Z,10.13
2023-04-15T23:21:21.107Z,8.87
2023-04-15T23:23:48.714Z,9.43
2023-04-15T23:26:15.882Z,9.70
2023-04-15T23:28:44.152Z,8.10
2023-04-15T23:31:11.621Z,10.13
2023-04-15T23:33:39.275Z,9.17
2023-04-15T23:36:07.212Z,9.57
2023-04-15T23:38:35.920Z,10.07
2023-04-15T23:41:04.703Z,9.57
2023-04-15T23:43:32.038Z,9.70
2023-04-15T23:46:01.379Z,12.50
2023-04-15T23:48:30.029Z,11.77
2023-04-15T23:50:58.449Z,10.23
2023-04-15T23:53:27.354Z,11.03
2023-04-15T23:55:55.821Z,9.13
2023-04-15T23:58:23.569Z,11.80
